createdAt,value
2019-05-19T10:58:42.128Z,34.26
2019-05-19T11:01:11.350Z,34.14
2019-05-19T11:03:40.583Z,33.62
2019-05-19T11:06:09.912Z,33.86
2019-05-19T11:08:39.142Z,34.43
2019-05-19T11:11:08.460Z,35.46
2019-05-19T11:13:37.657Z,35.46
2019-05-19T11:16:06.928Z,33.39
2019-05-19T11:18:36.081Z,34.69
2019-05-19T11:21:05.346Z,36.67
2019-05-19T11:23:34.625Z,37.26
2019-05-19T11:26:04.062Z,36.05
2019-05-19T11:28:33.264Z,35.05
2019-05-19T11:31:02.580Z,36.14
2019-05-19T11:33:33.004Z,37.24
2019-05-19T11:36:02.317Z,36.38
2019-05-19T11:38:31.502Z,35.62
2019-05-19T11:41:00.720Z,35.60
2019-05-19T11:43:29.951Z,34.66
2019-05-19T11:45:59.286Z,34.10
2019-05-19T11:48:29.575Z,33.94
2019-05-19T11:50:59.007Z,34.61
2019-05-19T11:53:28.151Z,33.99
2019-05-19T11:56:06.197Z,35.33
2019-05-19T11:58:28.769Z,33.96
2019-05-19T12:00:57.985Z,33.83
2019-05-19T12:03:27.163Z,33.92
2019-05-19T12:05:56.356Z,34.49
2019-05-19T12:08:25.572Z,34.55
2019-05-19T12:10:54.800Z,33.98
2019-05-19T12:13:23.984Z,33.24
2019-05-19T12:15:53.148Z,32.07
2019-05-19T12:18:22.397Z,32.99
2019-05-19T12:20:51.629Z,30.78
2019-05-19T12:23:20.843Z,30.44
2019-05-19T12:25:50.048Z,30.89
2019-05-19T12:28:19.224Z,31.10
2019-05-19T12:30:48.426Z,31.18
2019-05-19T12:33:17.579Z,32.45
2019-05-19T12:35:46.799Z,34.33
2019-05-19T12:38:15.997Z,33.00
2019-05-19T12:40:45.145Z,32.15
2019-05-19T12:43:14.380Z,32.04
2019-05-19T12:45:43.736Z,32.50
2019-05-19T12:48:13.118Z,32.69
2019-05-19T12:50:42.485Z,32.63
2019-05-19T12:53:11.825Z,30.66
2019-05-19T12:55:40.987Z,30.80
2019-05-19T12:58:10.166Z,30.02
2019-05-19T13:00:40.187Z,29.68
2019-05-19T13:03:09.466Z,27.37
2019-05-19T13:05:38.676Z,29.15
2019-05-19T13:08:11.364Z,31.31
2019-05-19T13:10:39.203Z,29.95
2019-05-19T13:13:08.427Z,26.95
2019-05-19T13:15:37.786Z,25.96
2019-05-19T13:18:06.996Z,25.77
2019-05-19T13:20:36.350Z,30.76
2019-05-19T13:23:05.556Z,29.94
2019-05-19T13:25:37.053Z,29.05
2019-05-19T13:28:06.280Z,27.05
2019-05-19T13:30:35.512Z,24.71
2019-05-19T13:33:05.397Z,25.88
2019-05-19T13:35:34.633Z,25.15
2019-05-19T13:38:03.967Z,25.54
2019-05-19T13:40:33.317Z,27.97
2019-05-19T13:43:02.504Z,30.47
2019-05-19T13:45:31.887Z,32.68
2019-05-19T13:48:03.015Z,32.68
2019-05-19T13:50:32.397Z,32.57
2019-05-19T13:53:01.656Z,32.47
2019-05-19T13:55:30.905Z,32.11
2019-05-19T13:58:00.102Z,31.82
2019-05-19T14:00:29.254Z,32.90
2019-05-19T14:02:58.449Z,33.34
2019-05-19T14:05:27.645Z,33.34
2019-05-19T14:07:58.939Z,33.59
2019-05-19T14:10:28.129Z,30.68
2019-05-19T14:12:56.361Z,28.05
2019-05-19T14:15:24.602Z,27.56
2019-05-19T14:17:53.359Z,24.83
2019-05-19T14:20:21.569Z,24.03
2019-05-19T14:22:49.841Z,23.56
2019-05-19T14:25:18.093Z,23.29
2019-05-19T14:27:46.315Z,25.87
2019-05-19T14:30:14.582Z,23.73
2019-05-19T14:32:42.843Z,24.56
2019-05-19T14:35:11.099Z,26.21
2019-05-19T14:37:40.238Z,27.28
2019-05-19T14:40:09.856Z,28.88
2019-05-19T14:43:00.741Z,29.68
2019-05-19T14:45:30.174Z,30.50
2019-05-19T14:47:59.448Z,31.24
2019-05-19T14:50:30.295Z,30.69
2019-05-19T14:52:59.688Z,31.59
2019-05-19T14:55:29.059Z,31.59
2019-05-19T14:57:58.322Z,31.91
2019-05-19T15:00:27.505Z,32.50
2019-05-19T15:02:56.737Z,32.15
2019-05-19T15:05:25.974Z,33.67
2019-05-19T15:07:55.293Z,34.75
2019-05-19T15:10:24.498Z,35.28
2019-05-19T15:12:53.834Z,35.10
2019-05-19T15:15:23.000Z,36.27
2019-05-19T15:17:52.207Z,35.89
2019-05-19T15:20:21.458Z,36.48
2019-05-19T15:22:50.755Z,34.64
2019-05-19T15:25:19.985Z,35.04
2019-05-19T15:27:59.755Z,35.32
2019-05-19T15:30:20.103Z,35.21
2019-05-19T15:32:49.379Z,34.65
2019-05-19T15:35:18.650Z,35.16
2019-05-19T15:37:47.865Z,34.57
2019-05-19T15:40:17.127Z,35.01
2019-05-19T15:42:46.275Z,34.80
2019-05-19T15:45:15.621Z,34.20
2019-05-19T15:47:45.049Z,33.22
2019-05-19T15:50:14.251Z,32.91
2019-05-19T15:52:43.612Z,32.49
2019-05-19T15:55:12.922Z,33.42
2019-05-19T15:57:45.050Z,34.72
2019-05-19T16:00:14.808Z,37.37
2019-05-19T16:02:44.093Z,53.85
2019-05-19T16:05:13.513Z,61.70
2019-05-19T16:07:44.660Z,68.59
2019-05-19T16:10:14.727Z,71.64
2019-05-19T16:12:43.916Z,73.22
2019-05-19T16:15:15.304Z,74.23
2019-05-19T16:17:44.516Z,75.09
2019-05-19T16:20:17.234Z,76.15
2019-05-19T16:22:46.465Z,76.66
2019-05-19T16:25:15.634Z,78.22
2019-05-19T16:27:44.958Z,76.68
2019-05-19T16:30:14.347Z,74.90
2019-05-19T16:32:43.604Z,71.93
2019-05-19T16:35:12.940Z,72.82
2019-05-19T16:37:42.725Z,76.78
2019-05-19T16:40:12.164Z,76.50
2019-05-19T16:42:41.322Z,78.26
2019-05-19T16:45:10.742Z,78.02
2019-05-19T16:47:39.929Z,76.29
2019-05-19T16:50:09.294Z,78.45
2019-05-19T16:52:38.475Z,78.77
2019-05-19T16:55:23.294Z,77.18
2019-05-19T16:57:52.472Z,75.93
2019-05-19T17:00:22.327Z,75.61
2019-05-19T17:02:51.568Z,72.61
2019-05-19T17:05:20.883Z,73.36
2019-05-19T17:07:50.146Z,73.15
2019-05-19T17:10:19.625Z,72.60
2019-05-19T17:12:48.975Z,73.95
2019-05-19T17:15:18.524Z,74.24
2019-05-19T17:17:47.850Z,75.32
2019-05-19T17:20:17.172Z,76.37
2019-05-19T17:22:46.382Z,77.54
2019-05-19T17:25:15.652Z,78.58
2019-05-19T17:27:44.866Z,77.21
2019-05-19T17:30:14.645Z,77.95
2019-05-19T17:32:45.730Z,77.67
2019-05-19T17:35:16.226Z,78.90
2019-05-19T17:37:45.566Z,78.31
2019-05-19T17:40:15.664Z,80.37
2019-05-19T17:42:44.923Z,79.93
2019-05-19T17:45:15.388Z,79.91
2019-05-19T17:47:44.964Z,78.88
2019-05-19T17:50:15.662Z,78.24
2019-05-19T17:52:44.956Z,76.44
2019-05-19T17:55:15.697Z,78.41
2019-05-19T17:57:45.345Z,78.03
2019-05-19T18:00:18.320Z,78.34
2019-05-19T18:02:49.017Z,78.72
2019-05-19T18:05:21.455Z,78.74
2019-05-19T18:07:51.167Z,78.95
2019-05-19T18:10:21.464Z,77.81
2019-05-19T18:12:54.681Z,78.97
2019-05-19T18:15:24.253Z,79.80
2019-05-19T18:17:55.762Z,79.28
2019-05-19T18:20:25.079Z,80.13
2019-05-19T18:22:57.031Z,80.66
2019-05-19T18:25:29.852Z,80.95
2019-05-19T18:27:59.754Z,81.40
2019-05-19T18:30:29.596Z,81.89
2019-05-19T18:32:59.223Z,82.09
2019-05-19T18:35:29.736Z,82.15
2019-05-19T18:38:02.633Z,82.61
2019-05-19T18:40:32.211Z,82.62
2019-05-19T18:43:04.125Z,82.36
2019-05-19T18:45:33.402Z,82.03
2019-05-19T18:48:02.885Z,81.55
2019-05-19T18:50:32.296Z,81.02
2019-05-19T18:53:09.138Z,81.47
2019-05-19T18:55:40.286Z,81.01
2019-05-19T18:58:10.989Z,81.14
2019-05-19T19:00:40.563Z,80.43
2019-05-19T19:03:10.111Z,80.25
2019-05-19T19:05:39.883Z,80.52
2019-05-19T19:08:09.685Z,79.72
2019-05-19T19:10:39.419Z,79.78
2019-05-19T19:13:09.133Z,79.73
2019-05-19T19:15:41.643Z,79.58
2019-05-19T19:18:11.947Z,79.27
2019-05-19T19:20:41.754Z,78.86
2019-05-19T19:23:11.514Z,79.22
2019-05-19T19:25:40.969Z,79.71
2019-05-19T19:28:10.722Z,79.47
2019-05-19T19:30:40.166Z,79.48
2019-05-19T19:33:09.477Z,79.67
2019-05-19T19:35:39.764Z,79.55
2019-05-19T19:38:13.163Z,79.19
2019-05-19T19:40:42.395Z,79.51
2019-05-19T19:43:11.875Z,79.18
2019-05-19T19:45:41.442Z,79.03
2019-05-19T19:48:11.921Z,78.71
2019-05-19T19:50:43.037Z,78.82
2019-05-19T19:53:12.951Z,78.98
2019-05-19T19:55:43.058Z,79.01
2019-05-19T19:58:13.789Z,78.95
2019-05-19T20:00:44.963Z,79.12
2019-05-19T20:03:16.495Z,78.99
2019-05-19T20:05:47.487Z,79.00
2019-05-19T20:08:17.095Z,79.33
2019-05-19T20:10:48.407Z,79.44
2019-05-19T20:13:19.029Z,78.93
2019-05-19T20:15:48.801Z,79.57
2019-05-19T20:18:18.314Z,79.52
2019-05-19T20:20:47.584Z,79.80
2019-05-19T20:23:16.798Z,79.75
2019-05-19T20:25:46.017Z,79.56
2019-05-19T20:28:16.266Z,79.47
2019-05-19T20:30:45.505Z,79.60
2019-05-19T20:33:14.743Z,79.91
2019-05-19T20:35:46.548Z,79.65
2019-05-19T20:38:16.405Z,79.44
2019-05-19T20:40:46.924Z,79.67
2019-05-19T20:43:16.147Z,79.84
2019-05-19T20:45:45.425Z,79.14
2019-05-19T20:48:15.034Z,79.35
2019-05-19T20:50:44.384Z,78.53
2019-05-19T20:53:13.572Z,78.62
2019-05-19T20:55:42.838Z,78.20
2019-05-19T20:58:12.178Z,78.45
2019-05-19T21:00:49.941Z,78.08
2019-05-19T21:03:12.982Z,77.90
2019-05-19T21:05:42.155Z,77.84
2019-05-19T21:08:11.459Z,77.77
2019-05-19T21:10:40.916Z,77.28
2019-05-19T21:13:10.268Z,78.46
2019-05-19T21:15:39.604Z,78.76
2019-05-19T21:18:08.860Z,79.46
2019-05-19T21:20:38.113Z,80.09
2019-05-19T21:23:07.286Z,80.34
2019-05-19T21:25:36.747Z,80.56
2019-05-19T21:28:05.989Z,80.91
2019-05-19T21:30:35.492Z,80.93
2019-05-19T21:33:05.894Z,80.98
2019-05-19T21:35:35.308Z,80.64
2019-05-19T21:38:05.616Z,80.99
2019-05-19T21:40:34.822Z,80.92
2019-05-19T21:43:04.089Z,80.75
2019-05-19T21:45:33.260Z,79.89
2019-05-19T21:48:02.625Z,80.21
2019-05-19T21:50:31.821Z,80.22
2019-05-19T21:53:00.992Z,80.31
2019-05-19T21:55:30.209Z,79.69
2019-05-19T21:57:59.410Z,79.45
2019-05-19T22:00:30.696Z,79.49
2019-05-19T22:02:59.995Z,79.75
2019-05-19T22:05:29.191Z,79.87
2019-05-19T22:08:07.899Z,79.92
2019-05-19T22:10:37.215Z,79.56
2019-05-19T22:13:06.415Z,80.06
2019-05-19T22:15:35.824Z,79.83
2019-05-19T22:18:05.427Z,80.10
2019-05-19T22:20:34.972Z,80.41
2019-05-19T22:23:04.183Z,80.94
2019-05-19T22:25:33.386Z,80.99
2019-05-19T22:28:02.655Z,80.98
2019-05-19T22:30:31.967Z,81.20
2019-05-19T22:33:01.125Z,81.36
2019-05-19T22:35:30.297Z,81.31
2019-05-19T22:37:59.502Z,81.82
2019-05-19T22:40:28.670Z,81.77
2019-05-19T22:42:57.912Z,81.62
2019-05-19T22:45:27.203Z,81.71
2019-05-19T22:47:56.510Z,81.57
2019-05-19T22:50:25.711Z,81.41
2019-05-19T22:52:54.990Z,81.15
2019-05-19T22:55:24.159Z,80.57
2019-05-19T22:57:53.482Z,81.14
2019-05-19T23:00:22.964Z,81.49
2019-05-19T23:02:52.157Z,81.79
2019-05-19T23:05:21.341Z,81.28
2019-05-19T23:07:51.800Z,81.67
2019-05-19T23:10:22.511Z,82.10
2019-05-19T23:12:51.687Z,82.50
2019-05-19T23:15:21.164Z,83.09
2019-05-19T23:17:50.502Z,83.17
2019-05-19T23:20:19.643Z,83.46
2019-05-19T23:22:48.934Z,83.48
2019-05-19T23:25:18.246Z,83.87
2019-05-19T23:27:49.264Z,84.37
2019-05-19T23:30:18.822Z,84.46
2019-05-19T23:32:47.989Z,85.00
2019-05-19T23:35:17.337Z,85.06
2019-05-19T23:37:46.450Z,85.34
2019-05-19T23:40:15.756Z,85.14
2019-05-19T23:42:44.912Z,85.30
2019-05-19T23:45:14.082Z,85.46
2019-05-19T23:47:43.504Z,85.46
2019-05-19T23:50:12.913Z,85.44
2019-05-19T23:52:42.166Z,85.35
2019-05-19T23:55:13.794Z,85.64
2019-05-19T23:57:42.960Z,85.63
